Time;durP1;ratioP1;P1;durP2;ratioP2;P2;SDS_P1;SDS_P2;PMS_P1;PMS_P2;Temp;Humidity;BMP_temperature;BMP_pressure;BME280_temperature;BME280_humidity;BME280_pressure;Samples;Min_cycle;Max_cycle;Signal;HPM_P1;HPM_P2
2022/09/14 00:00:14;;;;;;;8.25;2.60;;;;;;;16.74;78.54;100833.81;5057991;28;20025;-41
2022/09/14 00:02:39;;;;;;;13.82;2.10;;;;;;;16.67;79.41;100840.16;5057054;28;20026;-41
2022/09/14 00:05:05;;;;;;;7.00;2.25;;;;;;;16.66;79.69;100837.66;5058218;28;20037;-41
2022/09/14 00:07:30;;;;;;;12.30;2.60;;;;;;;16.60;80.30;100833.94;5057603;28;20132;-41
2022/09/14 00:09:56;;;;;;;13.13;2.38;;;;;;;16.61;82.17;100840.19;5058344;28;20056;-43
2022/09/14 00:12:21;;;;;;;15.15;2.67;;;;;;;16.59;82.21;100834.19;5074065;28;20059;-41
2022/09/14 00:14:46;;;;;;;10.70;2.20;;;;;;;16.60;81.45;100833.13;5077011;28;20135;-41
2022/09/14 00:17:12;;;;;;;14.40;2.53;;;;;;;16.58;80.73;100835.22;5063152;28;20101;-41
2022/09/14 00:19:37;;;;;;;13.90;2.65;;;;;;;16.54;81.75;100831.28;5057612;28;20025;-41
2022/09/14 00:22:02;;;;;;;11.85;2.67;;;;;;;16.52;82.46;100834.22;5070922;28;20173;-42
2022/09/14 00:24:31;;;;;;;12.55;2.60;;;;;;;16.51;82.24;100829.84;5057872;28;20029;-42
2022/09/14 00:26:57;;;;;;;17.88;2.50;;;;;;;16.54;81.95;100825.84;5058461;28;20021;-43
2022/09/14 00:29:22;;;;;;;7.07;2.20;;;;;;;16.54;81.59;100823.97;5077386;28;20051;-41
2022/09/14 00:31:48;;;;;;;10.00;2.92;;;;;;;16.54;81.69;100820.44;5077418;28;20100;-42
2022/09/14 00:34:15;;;;;;;12.05;2.53;;;;;;;16.54;81.39;100818.53;5076467;28;20056;-41
2022/09/14 00:36:43;;;;;;;19.63;2.23;;;;;;;16.53;81.46;100814.13;5077862;28;20108;-42
2022/09/14 00:39:10;;;;;;;13.38;2.00;;;;;;;16.50;81.02;100802.91;5058816;28;20028;-42
2022/09/14 00:41:38;;;;;;;12.90;2.30;;;;;;;16.50;80.96;100805.59;5062262;28;20026;-43
2022/09/14 00:44:26;;;;;;;11.73;2.17;;;;;;;16.52;80.73;100808.94;5057564;28;20025;-43
2022/09/14 00:46:54;;;;;;;7.03;1.90;;;;;;;16.49;80.21;100803.97;5057802;28;20087;-43
2022/09/14 00:49:22;;;;;;;10.68;2.03;;;;;;;16.46;81.03;100799.81;5074210;28;20096;-42
2022/09/14 00:52:07;;;;;;;8.88;2.03;;;;;;;16.47;81.03;100798.72;5072873;28;20024;-43
2022/09/14 00:54:47;;;;;;;14.52;2.15;;;;;;;16.48;80.95;100797.66;5077326;28;20025;-44
2022/09/14 00:57:13;;;;;;;24.58;2.40;;;;;;;16.45;80.61;100793.50;5068428;28;20021;-42
2022/09/14 00:59:40;;;;;;;12.52;2.50;;;;;;;16.41;80.89;100781.44;5076465;28;20060;-41
2022/09/14 01:02:08;;;;;;;7.03;2.17;;;;;;;16.50;79.82;100786.59;5076490;28;20047;-42
2022/09/14 01:04:33;;;;;;;11.20;2.03;;;;;;;16.45;79.15;100779.94;5077353;28;20037;-42
2022/09/14 01:07:10;;;;;;;8.07;1.95;;;;;;;16.46;79.82;100773.47;5075283;28;20273;-43
2022/09/14 01:10:07;;;;;;;12.40;1.98;;;;;;;16.46;80.19;100768.03;5057142;28;20028;-44
2022/09/14 01:12:32;;;;;;;13.98;2.35;;;;;;;16.42;80.81;100755.94;5071727;28;20097;-43
2022/09/14 01:15:00;;;;;;;15.25;2.33;;;;;;;16.41;81.45;100762.44;5076843;28;20029;-41
2022/09/14 01:17:51;;;;;;;14.75;2.63;;;;;;;16.38;81.55;100764.78;5071533;28;20025;-42
2022/09/14 01:20:32;;;;;;;12.23;2.00;;;;;;;16.43;81.38;100757.63;5057314;28;20064;-42
2022/09/14 01:23:02;;;;;;;15.23;2.10;;;;;;;16.45;81.06;100755.47;5057922;28;20038;-41
2022/09/14 01:26:05;;;;;;;9.95;1.75;;;;;;;16.46;80.84;100751.72;5068741;28;20038;-41
2022/09/14 01:28:35;;;;;;;9.75;1.70;;;;;;;16.42;80.37;100755.94;5062470;28;20052;-43
2022/09/14 01:31:02;;;;;;;9.23;1.92;;;;;;;16.44;79.97;100745.69;5056016;28;20132;-42
2022/09/14 01:33:32;;;;;;;15.30;2.40;;;;;;;16.42;79.77;100744.25;5055873;28;20021;-42
2022/09/14 01:35:59;;;;;;;10.55;1.80;;;;;;;16.42;80.09;100745.06;5055730;28;20049;-42
2022/09/14 01:38:30;;;;;;;18.38;2.20;;;;;;;16.45;79.34;100735.63;5072511;28;20093;-42
2022/09/14 01:40:58;;;;;;;7.60;1.50;;;;;;;16.41;79.63;100737.97;5075048;28;20028;-43
2022/09/14 01:43:37;;;;;;;8.60;1.90;;;;;;;16.39;80.37;100736.53;5075712;28;20017;-43
2022/09/14 01:46:06;;;;;;;12.43;1.85;;;;;;;16.37;81.13;100734.03;5076561;28;20013;-41
2022/09/14 01:48:41;;;;;;;16.67;2.05;;;;;;;16.40;81.30;100736.34;5047099;28;20032;-42
2022/09/14 01:51:11;;;;;;;16.27;1.83;;;;;;;16.43;80.67;100744.03;5066634;28;20028;-42
2022/09/14 01:53:45;;;;;;;10.73;2.05;;;;;;;16.40;81.21;100736.34;5075488;28;20040;-42
2022/09/14 01:56:19;;;;;;;15.07;3.00;;;;;;;16.39;81.51;100734.66;5072886;28;20035;-42
2022/09/14 01:58:53;;;;;;;13.02;2.67;;;;;;;16.42;82.24;100728.78;5069948;28;20063;-41
2022/09/14 02:01:22;;;;;;;10.93;2.42;;;;;;;16.42;81.98;100726.06;5075488;28;20048;-42
2022/09/14 02:04:00;;;;;;;14.52;2.10;;;;;;;16.44;81.71;100723.94;5076059;28;20051;-43
2022/09/14 02:06:30;;;;;;;13.25;2.53;;;;;;;16.43;81.43;100727.72;5115905;23;20008;-34
2022/09/14 02:08:56;;;;;;;7.10;2.05;;;;;;;16.43;81.69;100729.63;5016630;28;20089;-35
2022/09/14 02:11:21;;;;;;;11.82;2.33;;;;;;;16.42;81.79;100717.91;5018388;28;20542;-36
2022/09/14 02:13:46;;;;;;;8.35;2.05;;;;;;;16.41;81.52;100713.53;5031440;28;20045;-35
2022/09/14 02:16:12;;;;;;;8.02;2.15;;;;;;;16.42;81.26;100714.34;5017697;28;20033;-36
2022/09/14 02:18:38;;;;;;;10.98;2.00;;;;;;;16.41;81.21;100716.25;4998779;28;20123;-35
2022/09/14 02:21:25;;;;;;;12.23;1.90;;;;;;;16.38;81.54;100714.00;4993956;28;20058;-36
2022/09/14 02:23:51;;;;;;;11.45;1.90;;;;;;;16.40;81.45;100708.31;5015976;28;20029;-36
2022/09/14 02:26:18;;;;;;;17.08;2.58;;;;;;;16.38;81.11;100708.56;5018345;28;20370;-35
2022/09/14 02:28:43;;;;;;;13.97;2.27;;;;;;;16.35;81.25;100708.16;4980365;28;20053;-35
2022/09/14 02:31:30;;;;;;;9.55;2.20;;;;;;;16.33;81.59;100705.69;5011298;28;20748;-36
2022/09/14 02:34:07;;;;;;;10.65;1.80;;;;;;;16.34;80.98;100698.34;5011535;28;20061;-35
2022/09/14 02:36:39;;;;;;;;;;;;;;;16.28;81.48;100693.81;4994044;28;20084;-36
2022/09/14 02:39:08;;;;;;;11.80;2.15;;;;;;;16.26;81.90;100696.75;5010516;28;19913;-36
2022/09/14 02:41:46;;;;;;;13.57;2.42;;;;;;;16.27;81.27;100698.41;4992627;28;20034;-36
2022/09/14 02:44:23;;;;;;;9.30;2.15;;;;;;;16.21;80.99;100683.00;4993775;28;20318;-36
2022/09/14 02:47:00;;;;;;;10.25;1.88;;;;;;;16.20;81.71;100682.19;4992833;28;20030;-36
2022/09/14 02:49:37;;;;;;;14.23;2.20;;;;;;;16.19;80.98;100688.69;4993529;28;20076;-36
2022/09/14 02:52:08;;;;;;;9.60;2.00;;;;;;;16.14;80.75;100679.50;5010148;28;20026;-37
2022/09/14 02:54:43;;;;;;;13.20;2.25;;;;;;;16.15;81.44;100678.47;4992683;28;20040;-36
2022/09/14 02:57:08;;;;;;;11.73;3.28;;;;;;;16.13;81.56;100686.00;5010351;28;20034;-35
2022/09/14 02:59:35;;;;;;;7.40;1.95;;;;;;;16.11;81.36;100677.25;5011150;28;20038;-36
2022/09/14 03:02:00;;;;;;;14.40;2.45;;;;;;;16.12;81.42;100670.78;4992473;28;20041;-36
2022/09/14 03:04:26;;;;;;;13.68;3.40;;;;;;;16.12;81.06;100673.50;5010968;28;20018;-36
2022/09/14 03:06:51;;;;;;;13.30;2.33;;;;;;;16.09;81.21;100669.34;5010394;28;20042;-36
2022/09/14 03:09:17;;;;;;;9.45;2.03;;;;;;;16.11;81.45;100660.97;4992799;28;20080;-36
2022/09/14 03:11:43;;;;;;;11.77;2.00;;;;;;;16.16;80.19;100661.13;4992443;28;20122;-35
2022/09/14 03:14:10;;;;;;;8.57;2.20;;;;;;;16.18;79.36;100668.00;4992624;28;20026;-36
2022/09/14 03:16:36;;;;;;;15.55;2.10;;;;;;;16.13;79.75;100664.28;5010719;28;20034;-36
2022/09/14 03:19:01;;;;;;;10.27;2.25;;;;;;;16.11;80.05;100659.06;5010939;28;20127;-36
2022/09/14 03:21:27;;;;;;;13.02;2.20;;;;;;;16.05;80.07;100656.44;4992715;28;20057;-36
2022/09/14 03:23:54;;;;;;;17.02;2.13;;;;;;;16.06;80.51;100658.09;5010557;28;20030;-35
2022/09/14 03:26:20;;;;;;;6.82;2.00;;;;;;;16.09;80.47;100647.63;5012068;28;20041;-36
2022/09/14 03:28:57;;;;;;;9.40;1.90;;;;;;;16.07;80.67;100644.31;5011600;28;20091;-36
2022/09/14 03:31:23;;;;;;;12.13;2.40;;;;;;;16.12;80.29;100646.34;4993991;28;20166;-35
2022/09/14 03:33:56;;;;;;;12.65;1.88;;;;;;;16.13;80.00;100634.44;5012163;28;20037;-36
2022/09/14 03:36:23;;;;;;;8.82;1.92;;;;;;;16.13;80.01;100640.69;4993162;28;20501;-36
2022/09/14 03:38:50;;;;;;;7.32;1.77;;;;;;;16.12;80.29;100636.31;5008724;28;20029;-36
2022/09/14 03:41:16;;;;;;;10.60;1.83;;;;;;;16.09;80.44;100635.91;4990607;28;20018;-36
2022/09/14 03:43:42;;;;;;;18.40;2.83;;;;;;;16.10;80.55;100630.28;4992006;28;20069;-36
2022/09/14 03:46:12;;;;;;;10.10;2.42;;;;;;;16.07;80.88;100632.63;4993946;28;20056;-36
2022/09/14 03:48:38;;;;;;;15.43;1.85;;;;;;;16.08;80.96;100626.13;5011509;28;20063;-36
2022/09/14 03:51:05;;;;;;;10.20;1.88;;;;;;;16.02;81.09;100615.09;4993100;28;20145;-36
2022/09/14 03:53:30;;;;;;;7.95;1.90;;;;;;;16.05;81.04;100623.84;5010024;28;20033;-36
2022/09/14 03:55:56;;;;;;;11.05;1.90;;;;;;;16.03;80.47;100621.34;5010412;28;20026;-35
2022/09/14 03:58:23;;;;;;;7.15;2.08;;;;;;;16.01;80.67;100627.03;5009853;28;20508;-36
2022/09/14 04:00:48;;;;;;;19.92;2.75;;;;;;;16.05;80.55;100630.13;5006557;28;20031;-36
2022/09/14 04:03:14;;;;;;;10.93;2.05;;;;;;;16.04;79.98;100636.59;5009799;28;20030;-36
2022/09/14 04:05:39;;;;;;;11.32;1.70;;;;;;;15.98;80.02;100635.63;4992067;28;20038;-35
2022/09/14 04:08:05;;;;;;;12.30;2.35;;;;;;;15.95;80.47;100640.66;5010128;28;20046;-35
2022/09/14 04:10:30;;;;;;;8.38;2.13;;;;;;;15.97;80.72;100639.38;5028436;28;20099;-36
2022/09/14 04:12:57;;;;;;;13.05;1.73;;;;;;;15.98;80.52;100640.19;5008934;28;20049;-36
2022/09/14 04:15:22;;;;;;;9.18;2.00;;;;;;;15.93;79.76;100640.88;4989735;28;20049;-35
2022/09/14 04:17:48;;;;;;;11.40;1.85;;;;;;;15.94;80.17;100639.81;4992294;28;20124;-35
2022/09/14 04:20:14;;;;;;;11.32;2.05;;;;;;;15.95;80.07;100640.66;5007570;28;20420;-36
2022/09/14 04:22:39;;;;;;;19.38;2.38;;;;;;;15.99;80.18;100645.41;4969583;28;20105;-36
2022/09/14 04:25:05;;;;;;;10.05;1.90;;;;;;;16.01;79.75;100648.75;4989604;28;20060;-35
2022/09/14 04:27:30;;;;;;;10.50;2.15;;;;;;;16.10;78.06;100643.84;5006521;28;20022;-35
2022/09/14 04:29:56;;;;;;;17.55;2.28;;;;;;;16.10;77.90;100637.59;4976582;28;20022;-35
2022/09/14 04:32:21;;;;;;;10.43;1.70;;;;;;;16.10;78.25;100643.03;5010742;28;20072;-36
2022/09/14 04:34:47;;;;;;;13.43;1.65;;;;;;;16.11;78.33;100636.53;5013746;28;20030;-36
2022/09/14 04:37:13;;;;;;;9.65;1.80;;;;;;;16.11;78.61;100639.25;5014623;28;20064;-36
2022/09/14 04:39:38;;;;;;;8.40;1.88;;;;;;;16.06;79.11;100630.94;4991080;28;21124;-35
2022/09/14 04:42:04;;;;;;;9.63;1.80;;;;;;;16.10;78.33;100629.44;5007418;28;20046;-35
2022/09/14 04:44:29;;;;;;;9.90;2.08;;;;;;;16.10;77.78;100633.00;5005451;28;20033;-34
2022/09/14 04:46:54;;;;;;;14.55;2.17;;;;;;;16.06;78.02;100630.94;5007756;28;20466;-36
2022/09/14 04:49:20;;;;;;;9.38;2.15;;;;;;;16.02;78.90;100631.38;5008501;28;20026;-34
2022/09/14 04:51:45;;;;;;;11.30;1.92;;;;;;;16.03;79.09;100626.78;5007810;28;20092;-35
2022/09/14 04:54:13;;;;;;;7.50;1.80;;;;;;;16.01;79.07;100623.47;5004753;28;20045;-35
2022/09/14 04:56:39;;;;;;;18.10;2.33;;;;;;;16.01;79.73;100628.91;5007571;28;20038;-35
2022/09/14 04:59:04;;;;;;;12.45;2.45;;;;;;;16.00;79.51;100611.78;4990328;28;20049;-35
2022/09/14 05:01:35;;;;;;;13.27;2.63;;;;;;;15.94;79.99;100611.84;5007558;28;20029;-34
2022/09/14 05:04:01;;;;;;;18.55;2.92;;;;;;;15.91;80.55;100615.00;5008346;28;20061;-35
2022/09/14 05:06:29;;;;;;;13.55;2.40;;;;;;;15.89;79.92;100615.22;5006241;28;20527;-35
2022/09/14 05:08:56;;;;;;;18.30;3.75;;;;;;;15.85;80.03;100613.16;5005491;28;20053;-36
2022/09/14 05:11:23;;;;;;;18.48;2.75;;;;;;;15.80;80.35;100611.97;5006081;28;20049;-36
2022/09/14 05:13:49;;;;;;;22.20;2.60;;;;;;;15.84;80.77;100616.94;5007141;28;20513;-35
2022/09/14 05:16:18;;;;;;;16.83;2.22;;;;;;;15.86;80.51;100615.69;5006616;28;20026;-36
2022/09/14 05:18:44;;;;;;;8.70;2.33;;;;;;;15.85;80.74;100618.59;5006405;28;20423;-36
2022/09/14 05:21:11;;;;;;;14.35;2.38;;;;;;;15.83;81.34;100620.72;5007401;28;20042;-35
2022/09/14 05:23:36;;;;;;;13.57;2.20;;;;;;;15.80;81.75;100622.00;5005055;28;20030;-36
2022/09/14 05:26:02;;;;;;;10.88;2.10;;;;;;;15.84;81.96;100622.38;5007207;28;20503;-35
2022/09/14 05:28:28;;;;;;;14.00;2.03;;;;;;;15.89;81.01;100609.78;5008438;28;20036;-37
2022/09/14 05:30:54;;;;;;;13.43;2.33;;;;;;;15.98;80.27;100602.19;5006402;28;20029;-36
2022/09/14 05:33:20;;;;;;;16.52;2.13;;;;;;;15.96;79.90;100605.16;5005686;28;20108;-37
2022/09/14 05:35:46;;;;;;;9.75;2.95;;;;;;;15.89;80.28;100607.09;5007073;28;20080;-37
2022/09/14 05:38:11;;;;;;;10.20;2.50;;;;;;;15.91;80.45;100613.13;4988721;28;20497;-36
2022/09/14 05:40:37;;;;;;;15.38;2.70;;;;;;;15.91;80.19;100613.13;5005649;28;20033;-37
2022/09/14 05:43:02;;;;;;;5.93;2.05;;;;;;;15.85;81.11;100616.75;5005676;28;20026;-36
2022/09/14 05:45:27;;;;;;;17.63;3.08;;;;;;;15.84;81.73;100623.19;5004638;28;20565;-36
2022/09/14 05:47:53;;;;;;;46.88;30.77;;;;;;;15.86;81.21;100626.53;4991205;28;20030;-36
2022/09/14 05:50:18;;;;;;;6.25;2.58;;;;;;;15.85;81.10;100624.03;5010700;28;20509;-36
2022/09/14 05:52:44;;;;;;;14.02;2.55;;;;;;;15.82;82.30;100619.88;5007963;28;20040;-35
2022/09/14 05:55:09;;;;;;;10.93;2.53;;;;;;;15.78;82.86;100614.06;4993741;28;20481;-35
2022/09/14 05:57:34;;;;;;;12.05;2.38;;;;;;;15.78;83.71;100618.66;5009982;28;20046;-35
2022/09/14 06:00:00;;;;;;;11.05;2.72;;;;;;;15.78;83.51;100616.78;5007258;28;20033;-35
2022/09/14 06:02:26;;;;;;;17.88;3.60;;;;;;;15.83;83.66;100615.31;4993274;28;20041;-36
2022/09/14 06:04:51;;;;;;;13.27;3.33;;;;;;;15.89;83.13;100614.41;4992813;28;20038;-35
2022/09/14 06:07:16;;;;;;;18.60;2.90;;;;;;;15.86;82.60;100610.25;5011567;28;20053;-36
2022/09/14 06:09:42;;;;;;;14.68;2.90;;;;;;;15.87;82.64;100603.75;4991470;28;20054;-35
2022/09/14 06:12:07;;;;;;;16.00;3.30;;;;;;;15.85;83.22;100605.88;5009241;28;20026;-35
2022/09/14 06:14:33;;;;;;;26.92;2.80;;;;;;;15.78;83.52;100610.53;5008874;28;20026;-35
2022/09/14 06:16:58;;;;;;;24.50;2.80;;;;;;;15.76;85.39;100613.47;5007755;28;20120;-36
2022/09/14 06:19:23;;;;;;;29.20;4.60;;;;;;;15.72;84.89;100609.53;5011027;28;20668;-37
2022/09/14 06:21:49;;;;;;;20.95;3.75;;;;;;;15.70;85.80;100617.06;5011400;28;20049;-36
2022/09/14 06:24:14;;;;;;;21.70;2.83;;;;;;;15.69;86.42;100609.13;5010804;28;20036;-36
2022/09/14 06:26:40;;;;;;;12.90;2.90;;;;;;;15.67;86.85;100613.94;5008514;28;20052;-37
2022/09/14 06:29:05;;;;;;;20.63;2.97;;;;;;;15.72;87.02;100611.44;4976699;28;20033;-37
2022/09/14 06:31:30;;;;;;;20.67;3.00;;;;;;;15.80;86.67;100611.16;5008546;28;20022;-37
2022/09/14 06:33:56;;;;;;;18.90;3.30;;;;;;;15.85;86.14;100602.31;5003132;28;20041;-37
2022/09/14 06:36:23;;;;;;;18.00;2.92;;;;;;;15.85;85.98;100603.16;4984424;28;20033;-36
2022/09/14 06:38:49;;;;;;;12.68;2.80;;;;;;;15.91;86.17;100596.84;5011041;28;20037;-36
2022/09/14 06:41:18;;;;;;;23.02;3.60;;;;;;;15.95;85.42;100591.78;5009276;28;20026;-37
2022/09/14 06:43:44;;;;;;;24.02;3.60;;;;;;;15.91;85.46;100591.41;5008796;28;20040;-37
2022/09/14 06:46:11;;;;;;;22.05;4.03;;;;;;;15.91;85.66;100593.31;4993079;28;20489;-36
2022/09/14 06:48:43;;;;;;;19.73;4.05;;;;;;;15.91;86.23;100596.03;5009565;28;20356;-37
2022/09/14 06:51:15;;;;;;;13.27;3.47;;;;;;;15.90;86.55;100600.59;5009526;28;20041;-36
2022/09/14 06:53:41;;;;;;;15.82;3.75;;;;;;;15.82;86.13;100598.16;5004921;28;20148;-37
2022/09/14 06:56:06;;;;;;;17.13;4.07;;;;;;;15.78;85.74;100602.41;5010007;28;20088;-36
2022/09/14 06:58:33;;;;;;;15.57;3.65;;;;;;;15.81;86.25;100596.50;5010522;28;20030;-36
2022/09/14 07:01:05;;;;;;;19.88;3.70;;;;;;;15.80;86.23;100578.59;4999288;28;20034;-35
2022/09/14 07:03:31;;;;;;;23.50;3.90;;;;;;;15.78;87.00;100584.22;5006930;28;20396;-37
2022/09/14 07:06:09;;;;;;;18.70;4.55;;;;;;;15.83;87.38;100594.41;4992633;28;20112;-36
2022/09/14 07:08:35;;;;;;;17.67;3.53;;;;;;;15.73;85.76;100594.09;5010246;28;20049;-36
2022/09/14 07:11:02;;;;;;;15.13;3.05;;;;;;;15.72;85.56;100592.44;5010522;28;20080;-37
2022/09/14 07:13:28;;;;;;;15.27;3.05;;;;;;;15.73;84.80;100594.91;5010460;28;20068;-35
2022/09/14 07:15:54;;;;;;;21.73;3.85;;;;;;;15.83;83.75;100594.41;5008938;28;20022;-35
2022/09/14 07:18:21;;;;;;;13.93;3.15;;;;;;;15.83;82.12;100599.84;5010494;28;20415;-37
2022/09/14 07:20:47;;;;;;;22.38;3.08;;;;;;;15.86;82.07;100604.81;4988265;28;20445;-37
2022/09/14 07:23:12;;;;;;;20.98;3.30;;;;;;;15.87;82.08;100603.75;5007483;28;20555;-36
2022/09/14 07:25:38;;;;;;;10.35;2.97;;;;;;;15.84;82.56;100612.34;5010443;28;20057;-37
2022/09/14 07:28:03;;;;;;;18.02;2.78;;;;;;;15.93;82.52;100604.75;5009531;28;20044;-35
2022/09/14 07:30:28;;;;;;;14.32;2.85;;;;;;;16.04;81.78;100603.22;5009832;28;20069;-36
2022/09/14 07:32:54;;;;;;;10.80;3.08;;;;;;;16.12;80.71;100600.19;5010395;28;20030;-37
2022/09/14 07:35:19;;;;;;;17.33;2.80;;;;;;;16.13;79.82;100610.00;4991567;28;20534;-37
2022/09/14 07:37:45;;;;;;;16.45;3.75;;;;;;;16.13;79.89;100610.81;5007939;28;20080;-35
2022/09/14 07:40:11;;;;;;;13.88;2.88;;;;;;;16.12;79.52;100609.16;5007902;28;20378;-34
2022/09/14 07:42:36;;;;;;;23.48;3.00;;;;;;;16.10;78.88;100602.31;4997775;28;20441;-36
2022/09/14 07:45:04;;;;;;;19.95;3.30;;;;;;;16.10;79.37;100594.97;5001058;28;20022;-36
2022/09/14 07:47:30;;;;;;;18.42;2.70;;;;;;;16.08;80.39;100591.66;5005584;28;20033;-36
2022/09/14 07:49:55;;;;;;;15.45;3.65;;;;;;;16.10;80.39;100594.97;4992176;28;20076;-35
2022/09/14 07:52:20;;;;;;;15.13;3.58;;;;;;;16.15;80.48;100592.44;4977115;28;20061;-34
2022/09/14 07:54:46;;;;;;;16.33;3.70;;;;;;;16.18;80.80;100591.16;5002151;28;20038;-35
2022/09/14 07:57:11;;;;;;;10.73;3.20;;;;;;;16.24;80.57;100598.38;5011713;28;20033;-36
2022/09/14 07:59:37;;;;;;;15.48;2.90;;;;;;;16.20;79.31;100600.72;5008924;28;20061;-35
2022/09/14 08:02:04;;;;;;;15.23;2.78;;;;;;;16.22;79.13;100587.75;4985656;28;20034;-37
2022/09/14 08:04:30;;;;;;;16.10;2.97;;;;;;;16.27;79.59;100589.78;5007435;28;20018;-36
2022/09/14 08:06:55;;;;;;;10.07;2.60;;;;;;;16.28;78.72;100580.59;5009006;28;20060;-36
2022/09/14 08:09:20;;;;;;;16.38;3.45;;;;;;;16.31;78.13;100582.84;5007461;28;20054;-36
2022/09/14 08:11:46;;;;;;;13.60;3.25;;;;;;;16.35;78.39;100583.22;5013108;28;20033;-35
2022/09/14 08:14:12;;;;;;;15.57;2.97;;;;;;;16.41;79.19;100585.88;5012416;28;20037;-36
2022/09/14 08:16:39;;;;;;;12.98;3.15;;;;;;;16.53;78.77;100582.38;4994386;28;20034;-37
2022/09/14 08:19:09;;;;;;;21.48;3.13;;;;;;;16.57;76.88;100589.88;5010847;28;20087;-36
2022/09/14 08:21:35;;;;;;;14.38;2.80;;;;;;;16.57;76.68;100591.75;5013005;28;20041;-37
2022/09/14 08:24:03;;;;;;;20.45;3.20;;;;;;;16.62;77.14;100591.91;5012758;28;20033;-37
2022/09/14 08:26:28;;;;;;;24.30;3.35;;;;;;;16.61;76.47;100587.50;5010965;28;20058;-36
2022/09/14 08:28:55;;;;;;;17.98;3.50;;;;;;;16.55;76.17;100597.41;5011303;28;20115;-37
2022/09/14 08:31:23;;;;;;;16.55;3.40;;;;;;;16.57;76.17;100599.91;5011247;28;20053;-37
2022/09/14 08:33:59;;;;;;;16.77;2.70;;;;;;;16.58;75.61;100596.94;4993330;28;20041;-37
2022/09/14 08:36:27;;;;;;;19.13;2.80;;;;;;;16.60;75.82;100594.00;4992975;28;20034;-36
2022/09/14 08:38:52;;;;;;;;;;;;;;;16.71;75.88;100586.97;5005696;28;20498;-35
2022/09/14 08:41:28;;;;;;;10.27;2.30;;;;;;;16.67;75.19;100583.91;5006777;28;19949;-37
2022/09/14 08:43:58;;;;;;;13.35;2.88;;;;;;;16.75;75.19;100585.47;5010837;28;20497;-36
2022/09/14 08:46:28;;;;;;;21.27;3.42;;;;;;;16.80;75.14;100580.22;4988183;28;20088;-37
2022/09/14 08:48:54;;;;;;;19.20;3.30;;;;;;;16.86;75.74;100590.16;4995123;28;20026;-36
2022/09/14 08:51:20;;;;;;;15.25;3.90;;;;;;;16.72;75.52;100586.75;5018854;28;20049;-36
2022/09/14 08:53:46;;;;;;;17.13;4.03;;;;;;;16.71;76.78;100595.97;5008838;28;20374;-37
2022/09/14 08:56:16;;;;;;;27.42;3.33;;;;;;;16.78;77.10;100591.31;4992356;28;20026;-36
2022/09/14 08:58:53;;;;;;;18.50;3.75;;;;;;;16.89;76.82;100598.69;4994689;28;20090;-37
2022/09/14 09:01:39;;;;;;;19.20;3.07;;;;;;;16.92;76.11;100591.13;5009997;28;20057;-36
2022/09/14 09:04:26;;;;;;;12.00;3.45;;;;;;;16.84;75.80;100595.00;5010436;28;20030;-36
2022/09/14 09:06:56;;;;;;;16.13;2.88;;;;;;;16.88;76.11;100597.03;5011099;28;20049;-34
2022/09/14 09:09:23;;;;;;;17.48;3.30;;;;;;;16.92;76.51;100593.84;5012853;28;20469;-33
2022/09/14 09:11:51;;;;;;;13.43;3.25;;;;;;;16.92;76.32;100591.94;5011923;28;20516;-35
2022/09/14 09:14:40;;;;;;;14.75;3.33;;;;;;;16.93;75.67;100593.63;5013871;28;20040;-35
2022/09/14 09:17:23;;;;;;;15.50;3.13;;;;;;;16.86;76.06;100593.69;4985664;28;20048;-36
2022/09/14 09:19:55;;;;;;;14.13;2.95;;;;;;;16.88;76.29;100590.78;5012667;28;20116;-36
2022/09/14 09:22:23;;;;;;;15.00;3.08;;;;;;;16.91;76.23;100587.59;5008607;28;20175;-35
2022/09/14 09:24:52;;;;;;;9.82;3.28;;;;;;;16.94;75.68;100589.00;4978775;28;20022;-36
2022/09/14 09:27:18;;;;;;;19.48;3.78;;;;;;;17.01;75.76;100581.56;5009892;28;20042;-36
2022/09/14 09:29:43;;;;;;;14.38;3.28;;;;;;;16.88;75.04;100580.72;5007033;28;20069;-35
2022/09/14 09:32:35;;;;;;;15.65;3.33;;;;;;;16.98;75.65;100585.63;5009415;28;20026;-35
2022/09/14 09:35:00;;;;;;;10.90;2.78;;;;;;;16.99;75.92;100581.00;5005902;28;20056;-36
2022/09/14 09:37:27;;;;;;;22.63;4.05;;;;;;;17.04;76.51;100578.41;5009893;28;20022;-35
2022/09/14 09:39:53;;;;;;;12.00;2.97;;;;;;;17.14;76.57;100573.25;5009577;28;20116;-36
2022/09/14 09:42:20;;;;;;;26.23;3.08;;;;;;;17.10;75.26;100569.31;5008943;28;20549;-35
2022/09/14 09:45:03;;;;;;;24.10;3.78;;;;;;;17.21;74.17;100573.13;5012079;28;20136;-36
2022/09/14 09:47:32;;;;;;;11.18;3.00;;;;;;;17.21;74.12;100568.53;4996931;28;20034;-35
2022/09/14 09:50:04;;;;;;;19.20;3.67;;;;;;;17.21;74.51;100573.13;5003578;28;20041;-35
2022/09/14 09:52:30;;;;;;;13.27;2.90;;;;;;;17.30;75.19;100575.31;4993126;28;20534;-36
2022/09/14 09:54:56;;;;;;;12.82;3.15;;;;;;;17.39;74.13;100575.78;4981847;28;20428;-36
2022/09/14 09:57:30;;;;;;;15.00;2.85;;;;;;;17.45;73.98;100574.03;5012397;28;20065;-37
2022/09/14 10:00:21;;;;;;;16.38;3.40;;;;;;;17.45;73.01;100574.03;5013182;28;20068;-34
2022/09/14 10:02:47;;;;;;;11.55;2.38;;;;;;;17.47;72.83;100574.63;5016832;28;20033;-36
2022/09/14 10:05:13;;;;;;;19.77;3.15;;;;;;;17.46;73.15;100571.06;4992408;28;20061;-36
2022/09/14 10:07:49;;;;;;;20.55;2.85;;;;;;;17.50;73.56;100571.44;5005233;28;20505;-36
2022/09/14 10:10:18;;;;;;;13.00;2.93;;;;;;;17.58;72.82;100581.97;5005263;28;20033;-37
2022/09/14 10:12:49;;;;;;;10.07;2.25;;;;;;;17.64;70.83;100589.22;5011230;28;20050;-35
2022/09/14 10:15:19;;;;;;;5.50;1.88;;;;;;;17.64;70.88;100585.63;5010514;28;20033;-37
2022/09/14 10:18:03;;;;;;;15.85;1.80;;;;;;;17.65;70.64;100582.69;4994371;28;20044;-36
2022/09/14 10:20:28;;;;;;;9.60;2.10;;;;;;;17.55;69.91;100575.09;4999465;28;20029;-36
2022/09/14 10:22:53;;;;;;;12.52;2.15;;;;;;;17.62;70.16;100579.63;5008356;28;20389;-36
2022/09/14 10:25:22;;;;;;;10.32;2.00;;;;;;;17.67;70.38;100575.13;5003162;28;20034;-36
2022/09/14 10:27:56;;;;;;;14.38;2.38;;;;;;;17.70;70.58;100571.09;4974183;28;20030;-37
2022/09/14 10:30:27;;;;;;;9.32;2.10;;;;;;;17.84;70.89;100566.28;5004991;28;20025;-36
2022/09/14 10:33:00;;;;;;;10.95;2.40;;;;;;;17.94;69.46;100570.06;4992175;28;20033;-35
2022/09/14 10:35:51;;;;;;;7.38;1.75;;;;;;;17.99;68.21;100563.91;5006397;28;20088;-36
2022/09/14 10:38:35;;;;;;;12.77;2.30;;;;;;;18.02;68.44;100568.06;5006131;28;20408;-36
2022/09/14 10:41:07;;;;;;;11.43;2.05;;;;;;;18.07;67.64;100562.72;5007602;28;20502;-36
2022/09/14 10:44:18;;;;;;;11.35;1.70;;;;;;;18.08;67.93;100567.91;5003238;28;20114;-36
2022/09/14 10:47:24;;;;;;;11.93;2.80;;;;;;;18.17;67.79;100569.22;5006065;28;20457;-35
2022/09/14 10:50:04;;;;;;;12.38;2.22;;;;;;;18.23;66.56;100563.88;5005954;28;20034;-36
2022/09/14 10:52:49;;;;;;;11.13;2.40;;;;;;;18.48;65.52;100561.69;4992708;28;20444;-36
2022/09/14 10:55:30;;;;;;;12.52;1.55;;;;;;;18.78;64.61;100560.69;5005266;28;20512;-36
2022/09/14 10:58:16;;;;;;;11.93;1.80;;;;;;;18.94;63.27;100564.53;5006438;28;20033;-36
2022/09/14 11:01:08;;;;;;;15.95;1.92;;;;;;;19.12;63.37;100552.59;4999429;28;20061;-37
2022/09/14 11:04:09;;;;;;;7.15;1.60;;;;;;;19.35;61.34;100557.06;4985180;28;20596;-36
2022/09/14 11:06:52;;;;;;;4.97;1.38;;;;;;;19.34;60.85;100553.50;5005697;28;20042;-36
2022/09/14 11:09:24;;;;;;;10.25;1.30;;;;;;;19.35;61.41;100552.44;4990648;28;20026;-35
2022/09/14 11:11:59;;;;;;;13.23;3.30;;;;;;;19.18;61.18;100549.69;5000000;28;20057;-35
2022/09/14 11:14:28;;;;;;;13.73;2.08;;;;;;;18.88;61.85;100558.16;5013009;28;20029;-36
2022/09/14 11:16:53;;;;;;;12.55;1.70;;;;;;;18.73;63.30;100552.38;5008086;28;20437;-38
2022/09/14 11:20:00;;;;;;;9.27;1.88;;;;;;;18.90;63.35;100545.09;5008795;28;20104;-37
2022/09/14 11:22:35;;;;;;;12.45;2.05;;;;;;;18.96;63.32;100546.84;4997315;28;20453;-37
2022/09/14 11:25:25;;;;;;;12.30;1.70;;;;;;;19.32;62.02;100560.28;5007163;28;20500;-38
2022/09/14 11:27:54;;;;;;;17.70;2.20;;;;;;;19.55;61.36;100565.59;4981058;28;20508;-35
2022/09/14 11:30:21;;;;;;;9.98;1.60;;;;;;;20.04;61.03;100556.81;4991589;28;20080;-35